Time;durP1;ratioP1;P1;durP2;ratioP2;P2;SDS_P1;SDS_P2;PMS_P1;PMS_P2;Temp;Humidity;BMP_temperature;BMP_pressure;BME280_temperature;BME280_humidity;BME280_pressure;Samples;Min_cycle;Max_cycle;Signal;HPM_P1;HPM_P2
2022/10/20 00:00:25;;;;;;;5.00;2.17;;;;;;;10.19;65.25;102197.84;4970116;28;119822;-75
2022/10/20 00:02:51;;;;;;;4.17;2.20;;;;;;;10.18;65.25;102188.06;4952292;28;119775;-76
2022/10/20 00:05:17;;;;;;;3.63;2.03;;;;;;;10.21;65.50;102198.22;4968810;28;119794;-75
2022/10/20 00:07:42;;;;;;;3.08;2.15;;;;;;;10.21;65.94;102190.78;4970284;28;120060;-76
2022/10/20 00:10:09;;;;;;;4.10;2.10;;;;;;;10.20;65.37;102183.72;4968922;28;119781;-76
2022/10/20 00:12:35;;;;;;;4.00;2.20;;;;;;;10.22;66.38;102192.34;4969322;28;119879;-75
2022/10/20 00:15:00;;;;;;;4.00;2.20;;;;;;;10.23;66.35;102202.13;4969762;28;119699;-76
2022/10/20 00:17:29;;;;;;;4.30;2.20;;;;;;;10.30;66.13;102202.03;4973255;28;119623;-74
2022/10/20 00:19:55;;;;;;;4.25;2.47;;;;;;;10.33;66.41;102201.19;4968219;28;119387;-75
2022/10/20 00:22:20;;;;;;;5.30;2.42;;;;;;;10.36;66.80;102205.84;4969602;28;119855;-76
2022/10/20 00:24:46;;;;;;;4.57;2.53;;;;;;;10.40;67.03;102205.81;4968758;28;119762;-75
2022/10/20 00:27:12;;;;;;;4.77;2.50;;;;;;;10.45;66.85;102200.66;4969500;28;119307;-76
2022/10/20 00:29:37;;;;;;;4.10;2.50;;;;;;;10.52;66.63;102190.78;4980957;28;119293;-75
2022/10/20 00:32:12;;;;;;;4.85;3.00;;;;;;;10.56;67.16;102184.03;4954844;28;121529;-76
2022/10/20 00:34:38;;;;;;;6.30;3.10;;;;;;;10.62;66.65;102184.34;4950562;28;119788;-75
2022/10/20 00:37:03;;;;;;;4.77;3.03;;;;;;;10.67;67.52;102181.94;4985523;28;119847;-75
2022/10/20 00:39:29;;;;;;;6.27;3.20;;;;;;;10.73;67.15;102184.97;4988689;28;119577;-75
2022/10/20 00:41:55;;;;;;;5.05;3.55;;;;;;;10.77;67.44;102180.22;4955020;28;120012;-76
2022/10/20 00:44:45;;;;;;;5.22;3.25;;;;;;;10.72;67.46;102161.47;4988161;28;120080;-76
2022/10/20 00:47:21;;;;;;;7.87;4.17;;;;;;;10.88;67.50;102180.81;4988320;28;119375;-76
2022/10/20 00:49:48;;;;;;;5.80;4.00;;;;;;;10.93;67.67;102177.63;4971077;28;119368;-76
2022/10/20 00:52:17;;;;;;;6.30;3.95;;;;;;;10.97;67.58;102172.06;4957951;28;122399;-76
2022/10/20 00:54:43;;;;;;;7.03;4.57;;;;;;;11.07;67.76;102180.13;4950850;28;119536;-76
2022/10/20 00:57:08;;;;;;;5.63;4.33;;;;;;;11.11;67.96;102176.53;4951173;28;119805;-76
2022/10/20 00:59:36;;;;;;;6.97;4.75;;;;;;;11.19;67.78;102165.03;4972358;28;119848;-75
2022/10/20 01:02:05;;;;;;;7.33;4.80;;;;;;;11.27;67.98;102163.69;4950818;28;120102;-75
2022/10/20 01:04:33;;;;;;;6.68;4.70;;;;;;;11.32;67.70;102156.94;4950326;28;119853;-76
2022/10/20 01:06:59;;;;;;;6.78;4.45;;;;;;;11.39;67.32;102154.09;4969107;28;119397;-75
2022/10/20 01:09:25;;;;;;;7.43;4.40;;;;;;;11.36;66.86;102146.69;4969048;28;119459;-75
2022/10/20 01:12:14;;;;;;;6.97;4.80;;;;;;;11.46;67.18;102150.44;4950494;28;121758;-76
2022/10/20 01:14:52;;;;;;;7.82;4.82;;;;;;;11.48;67.22;102153.53;4968591;28;120641;-75
2022/10/20 01:17:33;;;;;;;8.18;5.05;;;;;;;11.46;67.09;102142.97;4969069;28;119583;-77
2022/10/20 01:20:07;;;;;;;6.13;4.83;;;;;;;11.54;66.90;102138.09;4934213;28;121660;-76
2022/10/20 01:23:09;;;;;;;7.63;5.23;;;;;;;11.54;67.27;102144.38;4972725;28;120236;-76
2022/10/20 01:25:53;;;;;;;8.48;5.50;;;;;;;11.54;67.51;102130.63;4966618;28;119173;-76
2022/10/20 01:28:21;;;;;;;7.20;4.80;;;;;;;11.56;67.44;102136.47;4967274;28;119284;-75
2022/10/20 01:30:55;;;;;;;7.20;4.90;;;;;;;11.60;67.31;102139.97;4967439;28;119217;-76
2022/10/20 01:33:24;;;;;;;8.32;4.97;;;;;;;11.63;67.30;102133.63;4946574;28;119577;-75
2022/10/20 01:35:50;;;;;;;7.07;4.90;;;;;;;11.65;66.94;102138.69;4954423;28;119752;-75
2022/10/20 01:38:20;;;;;;;7.07;5.10;;;;;;;11.66;66.73;102127.28;4969693;28;121087;-76
2022/10/20 01:41:08;;;;;;;10.00;5.10;;;;;;;11.67;67.29;102128.81;4987355;28;119818;-76
2022/10/20 01:43:36;;;;;;;7.40;4.57;;;;;;;11.68;66.63;102119.38;4970213;28;119630;-76
2022/10/20 01:46:04;;;;;;;6.63;5.00;;;;;;;11.67;66.18;102117.06;4974079;28;119242;-76
2022/10/20 01:48:33;;;;;;;6.90;4.65;;;;;;;11.63;66.49;102100.63;4968338;28;119546;-76
2022/10/20 01:51:01;;;;;;;7.80;5.40;;;;;;;11.68;66.97;102104.84;4968029;28;119376;-76
2022/10/20 01:53:27;;;;;;;7.97;5.13;;;;;;;11.67;66.71;102104.09;4949123;28;120554;-76
2022/10/20 01:55:55;;;;;;;8.00;5.10;;;;;;;11.66;67.11;102099.78;4967911;28;120287;-75
2022/10/20 01:58:58;;;;;;;8.70;5.40;;;;;;;11.71;67.55;102097.72;4968296;28;120160;-76
2022/10/20 02:02:08;;;;;;;8.85;5.10;;;;;;;11.73;67.40;102089.84;4967393;28;119858;-76
2022/10/20 02:04:53;;;;;;;10.10;5.20;;;;;;;11.75;67.42;102082.72;4887209;28;120423;-76
2022/10/20 02:07:31;;;;;;;8.13;5.73;;;;;;;11.67;67.31;102076.59;4887801;28;119588;-75
2022/10/20 02:10:26;;;;;;;8.48;5.70;;;;;;;11.79;66.88;102082.66;4890758;28;119947;-76
2022/10/20 02:12:59;;;;;;;11.48;6.63;;;;;;;11.80;67.59;102065.75;4877190;28;119778;-76
2022/10/20 02:15:29;;;;;;;9.68;5.82;;;;;;;11.81;67.58;102055.53;4886037;28;119602;-75
2022/10/20 02:18:01;;;;;;;13.07;6.32;;;;;;;11.87;67.05;102059.34;4903773;28;119613;-76
2022/10/20 02:20:30;;;;;;;9.70;6.10;;;;;;;11.82;67.18;102044.09;4879337;28;119571;-76
2022/10/20 02:22:58;;;;;;;10.57;5.85;;;;;;;11.88;67.10;102047.13;4871154;28;120873;-75
2022/10/20 02:25:26;;;;;;;12.48;5.88;;;;;;;11.81;67.10;102036.28;4902946;28;119776;-76
2022/10/20 02:27:55;;;;;;;7.73;5.00;;;;;;;11.88;67.54;102039.66;4902973;28;119737;-76
2022/10/20 02:30:21;;;;;;;6.97;4.72;;;;;;;11.83;67.45;102022.88;4854438;28;121986;-75
2022/10/20 02:32:51;;;;;;;5.67;4.40;;;;;;;11.91;67.25;102030.56;4890594;28;119707;-75
2022/10/20 02:35:28;;;;;;;7.65;4.97;;;;;;;11.94;67.15;102028.94;4926701;28;120583;-76
2022/10/20 02:37:54;;;;;;;9.10;5.10;;;;;;;11.95;67.08;102042.25;4976420;28;120024;-76
2022/10/20 02:40:21;;;;;;;8.15;5.13;;;;;;;11.96;67.06;102035.53;4956753;28;120627;-76
2022/10/20 02:42:47;;;;;;;8.68;5.32;;;;;;;11.96;66.95;102029.28;4965731;28;119358;-75
2022/10/20 02:45:13;;;;;;;8.70;5.47;;;;;;;11.95;67.07;102024.97;4967318;28;119320;-76
2022/10/20 02:47:39;;;;;;;9.05;5.18;;;;;;;11.94;66.98;102029.72;4983736;28;119218;-76
2022/10/20 02:50:06;;;;;;;6.57;4.87;;;;;;;11.96;66.56;102026.53;4970332;28;119878;-76
2022/10/20 02:52:32;;;;;;;7.35;5.45;;;;;;;11.97;67.05;102019.81;4969534;28;119669;-76
2022/10/20 02:54:58;;;;;;;9.07;5.40;;;;;;;11.95;66.98;102013.97;4972080;28;119942;-75
2022/10/20 02:57:25;;;;;;;8.07;5.40;;;;;;;11.98;66.71;102007.63;4967953;28;120954;-76
2022/10/20 02:59:50;;;;;;;7.80;6.00;;;;;;;11.98;66.69;102005.66;4970613;28;119632;-76
2022/10/20 03:02:16;;;;;;;7.10;5.80;;;;;;;11.98;66.44;102002.13;4969998;28;120288;-76
2022/10/20 03:04:42;;;;;;;7.63;5.72;;;;;;;11.97;66.78;101995.06;4952039;28;119951;-76
2022/10/20 03:07:07;;;;;;;9.35;6.50;;;;;;;11.95;67.03;101987.25;4952677;28;121702;-76
2022/10/20 03:09:33;;;;;;;7.60;6.07;;;;;;;11.96;67.17;101985.28;4970186;28;119614;-76
2022/10/20 03:11:59;;;;;;;10.02;5.60;;;;;;;11.95;66.69;101991.97;4952751;28;119865;-77
2022/10/20 03:14:24;;;;;;;9.48;6.03;;;;;;;11.96;66.60;101993.53;4974120;28;119447;-76
2022/10/20 03:16:50;;;;;;;9.20;5.93;;;;;;;11.95;66.56;101991.97;4952630;28;119699;-75
2022/10/20 03:19:16;;;;;;;9.88;6.50;;;;;;;11.93;66.51;101988.88;4972614;28;119583;-75
2022/10/20 03:21:41;;;;;;;11.20;6.30;;;;;;;11.91;66.89;101981.06;4971749;28;121823;-76
2022/10/20 03:24:07;;;;;;;9.93;5.78;;;;;;;11.88;66.99;101970.16;4983512;28;119614;-76
2022/10/20 03:26:33;;;;;;;9.52;5.75;;;;;;;11.92;67.10;101979.09;4952506;28;119656;-75
2022/10/20 03:28:58;;;;;;;11.15;6.55;;;;;;;11.89;66.90;101974.44;4969692;28;120409;-76
2022/10/20 03:31:24;;;;;;;10.18;6.60;;;;;;;11.90;66.80;101976.00;4969904;28;119642;-76
2022/10/20 03:33:50;;;;;;;8.55;6.07;;;;;;;11.91;66.46;101983.03;4969607;28;120124;-76
2022/10/20 03:36:15;;;;;;;8.00;5.78;;;;;;;11.87;66.48;101980.38;4973409;28;119912;-76
2022/10/20 03:38:44;;;;;;;7.90;6.25;;;;;;;11.88;66.41;101984.69;4970624;28;119525;-76
2022/10/20 03:41:10;;;;;;;11.00;6.45;;;;;;;11.88;66.57;101981.16;4969780;28;119321;-75
2022/10/20 03:43:38;;;;;;;8.60;6.43;;;;;;;11.86;66.45;101984.34;4952565;28;119679;-76
2022/10/20 03:46:06;;;;;;;10.43;6.57;;;;;;;11.83;66.34;101974.19;4969918;28;119615;-76
2022/10/20 03:48:32;;;;;;;9.20;7.10;;;;;;;11.82;66.22;101977.34;4969183;28;120203;-76
2022/10/20 03:50:59;;;;;;;13.00;6.83;;;;;;;11.81;66.10;101975.78;4968597;28;119651;-76
2022/10/20 03:53:25;;;;;;;11.90;7.15;;;;;;;11.69;65.91;101961.50;4951841;28;119519;-75
2022/10/20 03:55:53;;;;;;;11.25;8.02;;;;;;;11.71;66.27;101965.78;4969633;28;119802;-76
2022/10/20 03:58:19;;;;;;;13.68;7.85;;;;;;;11.66;66.41;101970.59;4956194;28;119505;-75
2022/10/20 04:00:50;;;;;;;17.10;8.30;;;;;;;11.67;66.81;101963.13;4969466;28;119320;-76
2022/10/20 04:03:16;;;;;;;17.23;8.25;;;;;;;11.61;66.71;101956.59;4951103;28;119754;-76
2022/10/20 04:05:42;;;;;;;24.60;9.63;;;;;;;11.64;66.79;101953.75;4952012;28;120000;-76
2022/10/20 04:08:07;;;;;;;25.17;9.82;;;;;;;11.54;66.44;101946.50;4976728;28;121025;-75
2022/10/20 04:10:59;;;;;;;24.83;10.73;;;;;;;11.56;66.53;101946.09;4974792;28;120051;-75
2022/10/20 04:13:25;;;;;;;24.70;10.10;;;;;;;11.49;67.05;101933.28;4969827;28;119698;-76
2022/10/20 04:15:50;;;;;;;19.23;9.30;;;;;;;11.55;66.76;101937.06;4969428;28;119901;-76
2022/10/20 04:18:16;;;;;;;19.33;9.23;;;;;;;11.52;66.87;101937.16;4970551;28;119508;-76
2022/10/20 04:20:42;;;;;;;14.97;8.70;;;;;;;11.53;66.51;101944.97;4989166;28;119808;-76
2022/10/20 04:23:07;;;;;;;15.33;9.07;;;;;;;11.53;66.89;101938.69;4970413;28;119861;-76
2022/10/20 04:25:33;;;;;;;12.83;8.50;;;;;;;11.47;67.12;101946.69;4951631;28;119769;-76
2022/10/20 04:27:59;;;;;;;13.27;8.27;;;;;;;11.50;66.86;101939.56;4951107;28;119566;-76
2022/10/20 04:30:25;;;;;;;11.13;8.00;;;;;;;11.49;66.72;101938.00;4969675;28;119690;-76
2022/10/20 04:32:50;;;;;;;10.98;7.68;;;;;;;11.46;66.76;101942.38;4969131;28;119302;-76
2022/10/20 04:35:16;;;;;;;11.00;8.02;;;;;;;11.45;67.05;101940.06;4968682;28;120842;-75
2022/10/20 04:37:42;;;;;;;12.38;7.85;;;;;;;11.44;66.33;101936.53;4969742;28;119309;-75
2022/10/20 04:40:08;;;;;;;10.93;7.43;;;;;;;11.43;66.38;101935.00;4961196;28;120024;-76
2022/10/20 04:42:37;;;;;;;10.07;7.82;;;;;;;11.43;66.67;101932.25;4992719;28;119780;-76
2022/10/20 04:45:03;;;;;;;10.18;7.72;;;;;;;11.43;66.68;101936.97;4984887;28;119719;-76
2022/10/20 04:47:32;;;;;;;13.93;8.38;;;;;;;11.38;66.98;101936.28;4968352;28;119886;-76
2022/10/20 04:49:58;;;;;;;9.35;7.10;;;;;;;11.32;66.47;101923.44;4969013;28;119617;-75
2022/10/20 04:52:23;;;;;;;12.68;7.80;;;;;;;11.38;65.94;101936.28;4951210;28;119508;-76
2022/10/20 04:54:49;;;;;;;11.18;7.75;;;;;;;11.37;66.25;101936.69;4969098;28;119656;-76
2022/10/20 04:57:15;;;;;;;9.98;7.28;;;;;;;11.34;66.17;101937.53;4951310;28;119917;-76
2022/10/20 04:59:40;;;;;;;10.05;7.75;;;;;;;11.31;66.76;101930.91;4969161;28;120064;-75
2022/10/20 05:02:06;;;;;;;10.27;7.30;;;;;;;11.30;66.38;101923.09;4971907;28;120058;-76
2022/10/20 05:04:31;;;;;;;9.15;7.60;;;;;;;11.23;66.48;101913.03;4968794;28;120997;-76
2022/10/20 05:06:57;;;;;;;10.00;7.70;;;;;;;11.22;66.09;101919.72;4970630;28;119257;-76
2022/10/20 05:09:23;;;;;;;10.23;7.80;;;;;;;11.22;65.89;101921.72;4988470;28;119337;-76
2022/10/20 05:11:48;;;;;;;11.98;8.13;;;;;;;11.19;66.02;101922.56;4988851;28;119968;-76
2022/10/20 05:14:14;;;;;;;11.95;8.05;;;;;;;11.16;66.31;101917.91;4987398;28;119642;-76
2022/10/20 05:16:40;;;;;;;12.55;7.72;;;;;;;11.13;65.81;101913.28;4970779;28;119635;-76
2022/10/20 05:19:05;;;;;;;12.27;8.82;;;;;;;11.11;66.41;101910.16;4950913;28;119545;-75
2022/10/20 05:21:33;;;;;;;11.57;8.60;;;;;;;11.07;66.30;101912.97;4968304;28;120160;-75
2022/10/20 05:24:01;;;;;;;10.27;8.07;;;;;;;11.04;66.23;101898.13;4971242;28;119694;-76
2022/10/20 05:26:31;;;;;;;12.67;7.90;;;;;;;11.05;66.65;101888.69;4948764;28;120375;-76
2022/10/20 05:28:56;;;;;;;15.10;9.43;;;;;;;11.09;66.44;101894.09;4966887;28;119724;-76
2022/10/20 05:31:22;;;;;;;9.67;7.80;;;;;;;11.11;66.49;101882.69;4949767;28;119989;-76
2022/10/20 05:33:54;;;;;;;11.45;7.53;;;;;;;11.10;66.53;101878.41;4966708;28;120191;-75
2022/10/20 05:36:25;;;;;;;17.15;8.80;;;;;;;11.08;67.03;101860.38;4949873;28;119775;-76
2022/10/20 05:38:53;;;;;;;22.63;9.13;;;;;;;11.10;66.60;101867.41;4949853;28;119253;-77
2022/10/20 05:41:21;;;;;;;24.02;9.27;;;;;;;11.11;66.67;101857.97;4967888;28;120288;-76
2022/10/20 05:43:49;;;;;;;27.52;10.07;;;;;;;11.11;66.67;101860.72;4967993;28;119849;-76
2022/10/20 05:46:18;;;;;;;29.20;9.60;;;;;;;11.08;66.79;101849.41;4971809;28;119603;-76
2022/10/20 05:48:45;;;;;;;28.50;9.98;;;;;;;11.13;66.82;101848.16;4950134;28;120154;-76
2022/10/20 05:51:16;;;;;;;21.83;8.82;;;;;;;11.12;67.23;101845.78;4968796;28;119454;-75
2022/10/20 05:53:43;;;;;;;16.40;8.05;;;;;;;11.17;66.81;101845.31;4983214;28;120959;-75
2022/10/20 05:56:11;;;;;;;17.05;8.40;;;;;;;11.16;67.18;101839.06;4982960;28;120147;-76
2022/10/20 05:58:38;;;;;;;14.40;7.60;;;;;;;11.17;66.78;101840.59;4968189;28;119226;-76
2022/10/20 06:01:38;;;;;;;13.45;6.90;;;;;;;11.18;67.46;101844.13;4948437;28;120700;-76
2022/10/20 06:04:07;;;;;;;9.30;6.90;;;;;;;11.17;67.74;101818.63;4967457;28;119480;-76
2022/10/20 06:06:33;;;;;;;11.63;6.70;;;;;;;11.23;68.02;101827.91;4982765;28;119288;-76
2022/10/20 06:08:59;;;;;;;11.35;5.93;;;;;;;11.31;67.69;101826.53;4981103;28;120295;-76
2022/10/20 06:11:25;;;;;;;11.25;6.35;;;;;;;11.38;67.39;101822.88;4968155;28;119329;-76
2022/10/20 06:14:16;;;;;;;13.90;6.25;;;;;;;11.39;67.33;101816.16;4967982;28;120022;-76
2022/10/20 06:16:42;;;;;;;9.00;6.27;;;;;;;11.47;67.26;101817.53;4968618;28;120019;-76
2022/10/20 06:19:09;;;;;;;10.47;6.40;;;;;;;11.50;67.70;101804.91;4967638;28;119816;-76
2022/10/20 06:21:36;;;;;;;10.27;6.25;;;;;;;11.55;67.33;101805.16;4967358;28;119952;-76
2022/10/20 06:24:04;;;;;;;13.45;6.72;;;;;;;11.61;67.25;101805.44;4950719;28;120026;-76
2022/10/20 06:26:35;;;;;;;12.23;6.32;;;;;;;11.65;67.79;101804.16;4975117;28;119995;-76
2022/10/20 06:29:02;;;;;;;10.43;6.80;;;;;;;11.69;67.93;101804.81;4949650;28;120724;-76
2022/10/20 06:31:30;;;;;;;10.82;6.22;;;;;;;11.74;67.68;101811.00;4966272;28;119212;-76
2022/10/20 06:33:57;;;;;;;7.43;5.05;;;;;;;11.75;66.90;101802.31;4970260;28;119708;-76
2022/10/20 06:36:24;;;;;;;9.43;5.25;;;;;;;11.83;67.24;101814.75;4968068;28;120508;-75
2022/10/20 06:38:54;;;;;;;8.00;4.72;;;;;;;11.88;67.11;101816.19;4967637;28;119211;-76
2022/10/20 06:41:20;;;;;;;7.05;4.72;;;;;;;11.92;66.98;101812.13;4948841;28;119903;-77
2022/10/20 06:43:47;;;;;;;7.35;5.05;;;;;;;11.98;66.83;101815.13;4966881;28;119463;-76
2022/10/20 06:46:16;;;;;;;8.55;5.28;;;;;;;11.96;66.92;101799.06;4967143;28;119339;-77
2022/10/20 06:48:42;;;;;;;7.97;5.20;;;;;;;12.09;67.03;101804.63;4965153;28;119236;-76
2022/10/20 06:51:13;;;;;;;8.38;4.68;;;;;;;12.12;66.56;101803.00;4967528;28;119617;-76
2022/10/20 06:53:40;;;;;;;6.33;4.60;;;;;;;12.15;66.34;101808.41;4960898;28;119855;-76
2022/10/20 06:56:09;;;;;;;7.93;4.85;;;;;;;12.17;66.44;101816.22;4967361;28;119737;-75
2022/10/20 06:58:36;;;;;;;8.35;4.57;;;;;;;12.21;66.59;101823.16;4949744;28;120291;-77
2022/10/20 07:01:03;;;;;;;9.50;4.70;;;;;;;12.25;65.86;101826.59;4966321;28;121226;-77
2022/10/20 07:03:30;;;;;;;6.97;4.50;;;;;;;12.30;66.12;101830.78;4966785;28;119723;-77
2022/10/20 07:05:56;;;;;;;8.02;4.85;;;;;;;12.34;66.79;101816.94;4949527;28;119669;-76
2022/10/20 07:08:22;;;;;;;7.78;4.68;;;;;;;12.36;66.03;101806.28;4984822;28;119316;-76
2022/10/20 07:10:58;;;;;;;9.40;4.40;;;;;;;12.43;66.17;101817.09;4987101;28;119915;-76
2022/10/20 07:13:23;;;;;;;7.95;4.45;;;;;;;12.46;66.06;101821.72;4990217;28;119377;-77
2022/10/20 07:15:53;;;;;;;7.15;4.40;;;;;;;12.49;65.88;101831.84;4979001;28;120043;-77
2022/10/20 07:18:20;;;;;;;7.65;4.18;;;;;;;12.51;66.05;101823.94;4966622;28;120024;-77
2022/10/20 07:21:13;;;;;;;8.32;4.30;;;;;;;12.61;65.91;101822.88;4948965;28;119718;-76
2022/10/20 07:23:39;;;;;;;7.80;4.50;;;;;;;12.69;66.13;101835.22;4965195;28;120012;-75
2022/10/20 07:26:09;;;;;;;8.33;4.10;;;;;;;12.73;65.60;101829.59;4966579;28;119874;-77
2022/10/20 07:28:35;;;;;;;7.72;4.30;;;;;;;12.78;65.92;101824.34;4960437;28;119644;-77
2022/10/20 07:31:07;;;;;;;8.10;4.30;;;;;;;12.83;65.94;101821.03;4970094;28;119887;-76
2022/10/20 07:33:33;;;;;;;7.93;4.20;;;;;;;12.94;65.62;101828.22;4954921;28;120360;-76
2022/10/20 07:35:59;;;;;;;8.15;4.03;;;;;;;13.01;65.74;101816.97;4953313;28;119910;-76
2022/10/20 07:38:25;;;;;;;6.67;4.10;;;;;;;13.11;65.41;101818.66;4942470;28;120623;-76
2022/10/20 07:40:51;;;;;;;7.35;4.00;;;;;;;13.19;65.04;101822.75;4966321;28;120239;-76
2022/10/20 07:43:17;;;;;;;9.38;4.22;;;;;;;13.16;64.88;101796.81;4968675;28;119533;-75
2022/10/20 07:45:43;;;;;;;7.03;4.03;;;;;;;13.34;65.10;101817.56;4969529;28;119332;-75
2022/10/20 07:48:08;;;;;;;8.63;4.05;;;;;;;13.38;64.65;101815.47;4951494;28;120112;-76
2022/10/20 07:50:43;;;;;;;6.93;3.67;;;;;;;13.41;64.24;101801.56;4969224;28;119424;-75
2022/10/20 07:53:09;;;;;;;7.35;3.95;;;;;;;13.41;64.87;101778.75;4950937;28;119832;-76
2022/10/20 07:55:35;;;;;;;7.80;3.70;;;;;;;13.56;64.57;101787.34;4972949;28;119593;-76
2022/10/20 07:58:01;;;;;;;6.72;3.88;;;;;;;13.62;64.32;101782.81;4971702;28;119972;-76
2022/10/20 08:00:27;;;;;;;8.27;4.00;;;;;;;13.70;64.35;101782.13;4969058;28;119924;-75
2022/10/20 08:02:55;;;;;;;6.38;4.00;;;;;;;13.76;64.51;101782.34;4968331;28;119843;-76
2022/10/20 08:05:20;;;;;;;7.28;3.88;;;;;;;13.83;63.96;101765.53;4968365;28;119506;-75
2022/10/20 08:07:46;;;;;;;6.45;3.83;;;;;;;13.87;64.01;101757.91;4968472;28;119332;-76
2022/10/20 08:10:12;;;;;;;6.90;3.57;;;;;;;13.99;64.25;101759.09;4969101;28;119804;-76
2022/10/20 08:12:37;;;;;;;6.33;3.77;;;;;;;14.06;64.33;101756.84;4968406;28;119840;-75
2022/10/20 08:15:04;;;;;;;6.57;3.53;;;;;;;14.14;63.57;101760.88;4950303;28;119762;-76
2022/10/20 08:17:30;;;;;;;6.85;3.50;;;;;;;14.22;63.49;101755.91;4969019;28;119784;-76
2022/10/20 08:19:55;;;;;;;6.95;3.78;;;;;;;14.31;63.50;101750.44;4954733;28;119780;-76
2022/10/20 08:22:21;;;;;;;7.43;3.53;;;;;;;14.35;62.73;101737.28;4969313;28;119981;-76
2022/10/20 08:24:47;;;;;;;9.03;3.80;;;;;;;14.39;63.02;101735.13;4974818;28;119837;-76
2022/10/20 08:27:12;;;;;;;9.60;3.50;;;;;;;14.43;62.71;101721.22;4968671;28;120615;-76
2022/10/20 08:29:38;;;;;;;7.33;3.70;;;;;;;14.55;63.01;101723.16;4968196;28;119533;-76
2022/10/20 08:32:07;;;;;;;8.68;3.40;;;;;;;14.61;62.35;101728.84;4967454;28;119704;-76
2022/10/20 08:34:33;;;;;;;6.88;3.15;;;;;;;14.67;62.15;101727.81;4967990;28;119439;-76
2022/10/20 08:36:59;;;;;;;6.43;3.35;;;;;;;14.73;62.33;101728.00;4968375;28;119635;-76
2022/10/20 08:39:24;;;;;;;6.07;3.10;;;;;;;14.81;62.49;101722.97;4968013;28;119688;-76
2022/10/20 08:41:52;;;;;;;7.97;3.38;;;;;;;14.84;62.19;101716.53;4971429;28;119443;-75
2022/10/20 08:44:24;;;;;;;6.88;3.60;;;;;;;14.87;62.21;101712.84;4950883;28;119975;-75
2022/10/20 08:46:50;;;;;;;7.82;3.55;;;;;;;14.93;62.13;101706.28;4965692;28;121139;-76
2022/10/20 08:49:29;;;;;;;7.20;3.50;;;;;;;14.98;61.55;101704.91;4953650;28;119683;-76
2022/10/20 08:51:54;;;;;;;7.53;3.55;;;;;;;15.04;60.93;101697.56;4949157;28;119417;-76
2022/10/20 08:54:24;;;;;;;7.33;3.20;;;;;;;15.06;61.37;101684.06;4948658;28;120608;-76
2022/10/20 08:56:50;;;;;;;5.95;3.30;;;;;;;15.13;60.82;101686.53;4965628;28;119566;-76
2022/10/20 08:59:21;;;;;;;7.47;3.30;;;;;;;15.18;60.68;101677.66;4969032;28;120117;-76
2022/10/20 09:01:47;;;;;;;7.63;3.45;;;;;;;15.26;61.55;101667.81;4964782;28;119908;-76
2022/10/20 09:04:20;;;;;;;7.93;3.25;;;;;;;15.30;60.20;101671.19;4954513;28;119594;-76
2022/10/20 09:06:52;;;;;;;7.40;3.40;;;;;;;15.32;60.36;101656.91;4968417;28;120028;-77
2022/10/20 09:09:21;;;;;;;7.72;2.95;;;;;;;15.35;59.83;101658.75;4950230;28;120020;-78
2022/10/20 09:11:47;;;;;;;7.67;3.23;;;;;;;15.38;60.37;101657.06;4965923;28;119795;-74
2022/10/20 09:14:15;;;;;;;6.17;3.00;;;;;;;15.45;59.66;101663.09;4953149;28;119706;-74
2022/10/20 09:16:45;;;;;;;6.55;3.00;;;;;;;15.46;59.51;101644.50;4966853;28;120015;-76
2022/10/20 09:19:19;;;;;;;7.60;3.20;;;;;;;15.48;59.13;101647.56;4934800;28;119832;-77
2022/10/20 09:21:50;;;;;;;6.55;3.00;;;;;;;15.55;59.63;101641.72;4949502;28;120991;-77
2022/10/20 09:24:19;;;;;;;5.57;2.90;;;;;;;15.59;59.01;101639.59;4954130;28;119584;-76
2022/10/20 09:26:46;;;;;;;5.50;2.70;;;;;;;15.64;58.84;101636.22;4967854;28;119954;-77
2022/10/20 09:29:14;;;;;;;7.03;2.87;;;;;;;15.66;58.88;101631.00;4953567;28;120058;-75
2022/10/20 09:31:54;;;;;;;7.30;2.90;;;;;;;15.65;58.17;101629.47;4965679;28;119532;-76
2022/10/20 09:34:31;;;;;;;6.45;2.78;;;;;;;15.63;58.59;101629.94;4934020;28;119939;-74
2022/10/20 09:37:11;;;;;;;6.57;3.10;;;;;;;15.65;59.05;101629.47;4969831;28;119808;-77
2022/10/20 09:39:57;;;;;;;6.28;2.70;;;;;;;15.68;58.33;101631.31;4967433;28;119828;-77
2022/10/20 09:42:29;;;;;;;5.95;2.95;;;;;;;15.72;58.27;101631.16;4968200;28;121081;-76
2022/10/20 09:45:00;;;;;;;5.75;3.00;;;;;;;15.74;58.78;101623.16;4966247;28;120245;-77
2022/10/20 09:47:26;;;;;;;5.43;2.70;;;;;;;15.82;57.95;101624.34;4957226;28;121026;-77
2022/10/20 09:49:58;;;;;;;6.77;3.07;;;;;;;15.87;58.19;101615.44;4965730;28;119644;-75
2022/10/20 09:52:46;;;;;;;6.67;2.97;;;;;;;15.94;58.19;101620.66;4964066;28;120086;-76
2022/10/20 09:55:25;;;;;;;6.20;3.00;;;;;;;16.00;58.11;101618.03;4967616;28;120348;-74
2022/10/20 09:57:55;;;;;;;7.70;2.67;;;;;;;16.05;57.55;101612.63;4966041;28;120201;-75
2022/10/20 10:00:24;;;;;;;6.10;2.85;;;;;;;16.12;58.06;101617.06;4963388;28;119750;-77
2022/10/20 10:03:26;;;;;;;6.15;3.20;;;;;;;16.11;56.32;101626.63;4947489;28;120289;-74
2022/10/20 10:05:57;;;;;;;7.38;3.20;;;;;;;16.12;56.51;101630.91;4963001;28;119565;-77
2022/10/20 10:08:26;;;;;;;5.22;3.08;;;;;;;16.14;56.53;101618.16;4966977;28;119790;-75
2022/10/20 10:11:04;;;;;;;6.00;3.40;;;;;;;16.21;57.02;101615.03;4969417;28;119836;-76
2022/10/20 10:13:38;;;;;;;6.75;3.28;;;;;;;16.27;55.91;101615.16;4967091;28;119742;-77
2022/10/20 10:16:14;;;;;;;5.50;3.20;;;;;;;16.31;56.33;101615.00;4954516;28;121458;-76
2022/10/20 10:18:40;;;;;;;8.37;3.50;;;;;;;16.32;56.58;101606.22;4965565;28;119904;-77
2022/10/20 10:21:09;;;;;;;6.60;3.40;;;;;;;16.37;56.16;101602.84;4915373;28;119515;-77
2022/10/20 10:23:49;;;;;;;5.57;3.08;;;;;;;16.39;56.09;101589.28;4947727;28;121571;-76
2022/10/20 10:26:51;;;;;;;5.77;3.10;;;;;;;16.42;55.96;101574.50;4948144;28;120029;-77
2022/10/20 10:29:21;;;;;;;6.63;3.05;;;;;;;16.42;55.42;101566.19;4958186;28;119570;-77
2022/10/20 10:32:00;;;;;;;4.95;3.05;;;;;;;16.38;55.72;101564.84;4965031;28;120276;-77
2022/10/20 10:34:40;;;;;;;5.22;2.90;;;;;;;16.31;55.73;101557.63;4952507;28;119836;-78
2022/10/20 10:37:11;;;;;;;5.25;3.00;;;;;;;16.26;56.07;101569.34;4951767;28;120052;-77
2022/10/20 10:40:40;;;;;;;6.23;3.10;;;;;;;16.24;56.36;101555.19;4964479;28;119747;-77
2022/10/20 10:43:16;;;;;;;5.80;2.90;;;;;;;16.24;56.77;101546.91;4947133;28;120244;-74
2022/10/20 10:45:55;;;;;;;3.57;2.73;;;;;;;16.30;56.37;101539.47;4958131;28;119887;-77
2022/10/20 10:48:42;;;;;;;5.47;2.75;;;;;;;16.33;56.63;101530.25;4965230;28;119691;-75
2022/10/20 10:51:21;;;;;;;6.38;2.80;;;;;;;16.42;56.18;101515.59;4951571;28;119993;-77
2022/10/20 10:54:12;;;;;;;5.05;2.65;;;;;;;16.52;56.13;101517.81;4956787;28;119967;-74
2022/10/20 10:56:54;;;;;;;4.68;2.63;;;;;;;16.63;55.97;101513.75;4905987;28;120124;-78
2022/10/20 10:59:43;;;;;;;6.47;3.08;;;;;;;16.70;55.52;101502.34;4953660;28;120095;-73
2022/10/20 11:02:36;;;;;;;5.38;3.00;;;;;;;16.73;55.66;101490.31;4961144;28;119953;-77
2022/10/20 11:05:21;;;;;;;6.85;3.00;;;;;;;16.74;54.91;101478.00;4967664;28;119816;-77
2022/10/20 11:08:07;;;;;;;4.90;2.75;;;;;;;16.71;55.15;101467.88;4967329;28;120061;-74
2022/10/20 11:10:50;;;;;;;5.35;2.60;;;;;;;16.71;55.39;101467.88;4943318;28;119939;-78
2022/10/20 11:13:34;;;;;;;4.88;2.55;;;;;;;16.71;55.27;101459.56;4974465;28;119757;-74
2022/10/20 11:16:29;;;;;;;6.10;2.60;;;;;;;16.73;55.59;101457.84;4953279;28;120144;-77
2022/10/20 11:19:10;;;;;;;6.18;2.60;;;;;;;16.70;54.47;101452.47;4952311;28;119771;-74
2022/10/20 11:21:36;;;;;;;5.83;2.80;;;;;;;16.66;55.82;101458.22;4966685;28;119392;-76
2022/10/20 11:24:28;;;;;;;6.27;2.60;;;;;;;16.69;55.47;101443.41;4970771;28;119563;-77
2022/10/20 11:27:14;;;;;;;5.85;2.67;;;;;;;16.79;55.59;101433.00;4970885;28;119779;-77
2022/10/20 11:30:14;;;;;;;3.83;2.30;;;;;;;16.98;56.09;101450.22;4949975;28;119866;-76